Latest Weather Observations for Badgerys Creek

IDN60801

Issued at 7:32 pm EDT Saturday 21 January 2017 (issued every 30 minutes, with the page automatically refreshed every 10 minutes)

About weather observations | Map of weather stations | Latest weather observations for NSW | Other Formats
Station Details ID: 067108 Name: BADGERYS CREEK AWS Lat: -33.90 Lon: 150.73 Height: 81.2 m
Data from the previous 72 hours. | See also: Recent months at Badgerys Creek
Date/Time
EDT
Temp
°C
App
Temp
°C
Dew
Point
°C
Rel
Hum
%
Delta-T
°C
Wind Press
QNH
hPa
Press
MSL
hPa
Rain since
9am
mm
Dir  Spd
km/h
Gust
km/h
Spd
kts
Gust
kts
21/07:30pm 21.1 20.1 14.5 66 3.9 ESE 13 20 7 11 1014.9 1014.6 0.0
21/07:00pm 21.8 19.9 14.2 62 4.5 ESE 17 24 9 13 1014.1 1013.8 0.0
21/06:30pm 23.1 21.7 14.4 58 5.1 ESE 15 28 8 15 1013.5 1013.1 0.0
21/06:00pm 24.1 21.9 14.5 55 5.7 E 19 30 10 16 1012.9 1012.5 0.0
21/05:30pm 24.8 22.1 14.6 53 6.1 ESE 22 32 12 17 1012.5 1012.1 0.0
21/05:00pm 25.3 22.9 14.4 50 6.5 ESE 20 32 11 17 1012.3 1011.9 0.0
21/04:30pm 26.3 24.1 14.4 48 7.1 E 19 30 10 16 1012.1 1011.7 0.0
21/04:00pm 26.6 23.8 14.4 47 7.3 E 22 30 12 16 1011.9 1011.5 0.0
21/03:30pm 27.1 24.2 14.1 44 7.8 E 22 32 12 17 1011.5 1011.1 0.0
21/03:00pm 27.6 24.7 13.9 43 8.2 ENE 22 35 12 19 1011.3 1010.9 0.0
21/02:30pm 27.5 25.7 13.4 41 8.4 ENE 15 24 8 13 1010.9 1010.5 0.0
21/02:00pm 28.6 27.6 13.3 39 9.1 NE 11 20 6 11 1010.9 1010.5 0.0
21/01:30pm 27.6 26.9 13.2 41 8.5 SE 9 17 5 9 1011.1 1010.7 0.0
21/01:00pm 26.1 25.7 12.5 42 7.9 SE 6 17 3 9 1011.3 1010.9 0.0
21/12:30pm 26.7 26.2 13.8 45 7.7 E 9 17 5 9 1011.5 1011.1 0.0
21/12:00pm 25.7 25.1 13.5 46 7.2 E 9 17 5 9 1011.4 1011.0 0.0
21/11:30am 24.5 24.0 12.5 47 6.9 NE 7 15 4 8 1011.5 1011.1 0.0
21/11:00am 24.2 24.0 13.1 50 6.5 ENE 6 11 3 6 1011.4 1011.0 0.0
21/10:30am 23.5 23.0 12.5 50 6.3 ESE 7 13 4 7 1011.6 1011.2 0.0
21/10:00am 22.6 21.9 12.0 51 6.0 SSE 7 11 4 6 1011.3 1010.9 0.0
21/09:30am 22.5 21.6 12.7 54 5.6 SSE 9 13 5 7 1011.1 1010.7 0.0
21/09:00am 21.7 21.1 12.3 55 5.3 SE 7 13 4 7 1010.8 1010.4 7.2
21/08:30am 21.4 21.4 12.3 56 5.1 SE 4 6 2 3 1010.5 1010.1 7.2
21/08:00am 21.1 21.4 13.3 61 4.5 S 4 6 2 3 1010.0 1009.6 7.2
21/07:30am 20.5 20.3 13.0 62 4.3 S 6 9 3 5 1009.5 1009.1 7.2
21/07:00am 20.2 20.0 12.9 63 4.2 SSE 6 13 3 7 1009.0 1008.6 7.2
21/06:30am 20.0 19.8 13.0 64 4.0 SSE 6 9 3 5 1008.4 1008.0 7.2
21/06:00am 20.1 20.2 13.8 67 3.6 SE 6 11 3 6 1007.7 1007.3 7.2
21/05:30am 20.2 20.7 13.9 67 3.6 ESE 4 6 2 3 1006.9 1006.5 7.2
21/05:00am 20.4 20.9 14.1 67 3.7 SE 4 9 2 5 1006.4 1006.0 7.2
21/04:30am 20.5 20.7 14.2 67 3.7 SE 6 11 3 6 1006.3 1005.9 7.2
21/04:00am 20.6 20.9 14.5 68 3.6 E 6 9 3 5 1006.0 1005.6 7.2
21/03:30am 20.8 21.5 14.5 67 3.7 ESE 4 6 2 3 1005.7 1005.3 7.2
21/03:00am 20.9 21.9 14.3 66 3.9 SSE 2 6 1 3 1005.5 1005.1 7.2
21/02:30am 21.0 21.5 14.9 68 3.6 SSE 6 9 3 5 1005.2 1004.8 7.2
21/02:00am 21.1 23.0 16.7 76 2.7 ESE 2 6 1 3 1004.8 1004.4 7.2
21/01:30am 21.3 23.4 17.3 78 2.5 SE 2 6 1 3 1004.4 1004.1 7.2
21/01:00am 21.5 22.7 17.3 77 2.6 S 7 13 4 7 1003.8 1003.5 7.2
21/12:30am 21.4 22.6 17.4 78 2.5 S 7 9 4 5 1003.3 1003.0 7.2
21/12:00am 21.3 22.2 17.5 79 2.4 S 9 15 5 8 1002.8 1002.4 7.2
 
Date/Time
EDT
Temp
°C
App
Temp
°C
Dew
Point
°C
Rel
Hum
%
Delta-T
°C
Wind Press
QNH
hPa
Press
MSL
hPa
Rain since
9am
mm
Dir  Spd
km/h
Gust
km/h
Spd
kts
Gust
kts
20/11:30pm 21.6 21.9 17.8 79 2.4 S 13 22 7 12 1002.1 1001.7 7.2
20/11:00pm 21.6 21.3 18.2 81 2.1 SSE 17 28 9 15 1001.6 1001.2 7.2
20/10:30pm 22.2 21.5 18.6 80 2.3 SSE 20 33 11 18 1000.7 1000.3 7.2
20/10:00pm 23.1 20.9 19.5 80 2.3 SSE 30 43 16 23 999.7 999.3 7.2
20/09:53pm 24.5 23.6 19.8 75 3.0 S 24 43 13 23 999.3 998.9 7.2
20/09:30pm 24.4 26.3 20.5 79 2.5 SSE 11 19 6 10 998.2 997.8 7.2
20/09:00pm 24.5 26.7 21.8 85 1.8 W 13 20 7 11 996.8 996.4 7.2
20/08:30pm 24.8 30.3 24.1 96 0.5 W 2 6 1 3 996.1 995.7 7.2
20/08:00pm 25.7 31.7 24.3 92 1.0 CALM 0 4 0 2 995.5 995.1 7.2
20/07:30pm 26.2 32.3 25.0 93 0.8 SW 2 4 1 2 995.4 995.0 7.2
20/07:00pm 25.6 28.1 24.4 93 0.8 SW 19 28 10 15 995.1 994.7 7.0
20/06:30pm 28.4 34.9 25.0 82 2.4 CALM 0 2 0 1 993.4 993.0 6.0
20/06:00pm 28.8 33.9 25.6 83 2.3 NW 9 19 5 10 993.3 992.9 6.0
20/05:30pm 30.3 35.4 24.7 72 3.9 N 6 11 3 6 992.8 992.4 6.0
20/05:00pm 29.3 34.6 24.4 75 3.4 N 4 9 2 5 993.1 992.7 6.0
20/04:30pm 28.4 33.3 24.6 80 2.7 N 7 11 4 6 993.3 992.9 6.0
20/04:00pm 27.6 32.0 24.4 83 2.2 N 9 13 5 7 993.5 993.1 6.0
20/03:30pm 26.9 31.4 24.0 84 2.0 N 7 13 4 7 993.8 993.4 6.0
20/03:00pm 26.4 29.9 22.9 81 2.4 N 9 13 5 7 994.9 994.5 6.0
20/02:30pm 26.0 28.6 22.7 82 2.2 N 13 19 7 10 995.0 994.6 6.0
20/02:00pm 25.6 27.5 22.7 84 2.0 N 17 22 9 12 995.7 995.3 6.0
20/01:30pm 25.2 28.5 23.8 92 1.0 NNE 13 20 7 11 996.0 995.6 5.8
20/01:00pm 21.8 24.8 21.3 97 0.3 NNE 7 13 4 7 997.0 996.6 5.8
20/12:30pm 20.6 23.1 19.9 96 0.4 NNW 6 7 3 4 998.0 997.6 5.4
20/12:00pm 20.8 23.7 19.8 94 0.6 NNW 4 7 2 4 998.6 998.2 3.4
20/11:30am 20.7 23.0 18.6 88 1.3 NNW 4 6 2 3 999.0 998.6 1.0
20/11:00am 21.7 22.8 18.1 80 2.3 N 9 13 5 7 999.7 999.3 0.0
20/10:30am 22.5 23.1 17.6 74 3.0 NNE 11 17 6 9 998.9 998.5 0.0
20/10:00am 22.4 22.7 17.8 75 2.9 N 13 19 7 10 999.2 998.8 0.0
20/09:30am 21.8 21.5 17.4 76 2.7 N 15 22 8 12 1000.3 999.9 0.0
20/09:00am 22.0 21.0 16.7 72 3.3 NNE 17 24 9 13 1001.4 1001.0 0.4
20/08:30am 21.2 20.4 17.0 77 2.6 N 17 22 9 12 1001.7 1001.3 0.4
20/08:00am 21.1 19.8 16.9 77 2.6 NNE 19 24 10 13 1002.0 1001.6 0.4
20/07:30am 20.6 20.9 17.0 80 2.2 N 11 17 6 9 1002.9 1002.5 0.4
20/07:00am 19.7 20.5 17.3 86 1.5 NNE 9 13 5 7 1003.4 1003.1 0.4
20/06:30am 19.2 21.0 17.3 89 1.2 N 4 4 2 2 1003.6 1003.3 0.4
20/06:00am 19.0 20.7 17.1 89 1.2 NW 4 7 2 4 1003.7 1003.4 0.4
20/05:30am 19.2 21.6 17.0 87 1.3 CALM 0 0 0 0 1004.4 1004.1 0.4
20/05:00am 19.2 21.6 17.0 87 1.3 CALM 0 0 0 0 1004.8 1004.4 0.4
20/04:30am 19.2 21.2 17.0 87 1.3 NW 2 2 1 1 1005.3 1004.9 0.4
20/04:00am 19.2 21.6 17.0 87 1.3 CALM 0 0 0 0 1006.0 1005.6 0.4
20/03:30am 19.1 21.1 16.9 87 1.3 NW 2 4 1 2 1006.6 1006.2 0.4
20/03:00am 19.2 21.6 17.0 87 1.3 CALM 0 0 0 0 1006.8 1006.4 0.4
20/02:30am 19.2 21.6 17.0 87 1.3 CALM 0 0 0 0 1007.9 1007.5 0.4
20/02:00am 19.1 21.5 16.9 87 1.3 CALM 0 0 0 0 1008.3 1007.9 0.4
20/01:30am 19.2 21.6 17.0 87 1.3 CALM 0 0 0 0 1008.9 1008.5 0.4
20/01:00am 19.3 21.7 17.1 87 1.3 CALM 0 2 0 1 1009.7 1009.3 0.4
20/12:30am 19.3 20.9 16.9 86 1.5 NW 4 4 2 2 1010.2 1009.8 0.4
20/12:00am 19.3 20.9 16.9 86 1.5 NW 4 6 2 3 1010.5 1010.1 0.4
 
Date/Time
EDT
Temp
°C
App
Temp
°C
Dew
Point
°C
Rel
Hum
%
Delta-T
°C
Wind Press
QNH
hPa
Press
MSL
hPa
Rain since
9am
mm
Dir  Spd
km/h
Gust
km/h
Spd
kts
Gust
kts
19/11:30pm 19.4 21.0 16.8 85 1.6 NW 4 6 2 3 1010.8 1010.4 0.4
19/11:00pm 19.4 20.9 16.6 84 1.7 NW 4 6 2 3 1011.1 1010.7 0.4
19/10:30pm 19.5 20.9 16.5 83 1.8 NW 4 7 2 4 1011.5 1011.1 0.4
19/10:00pm 20.1 20.8 15.7 76 2.6 N 6 9 3 5 1011.6 1011.2 0.4
19/09:30pm 20.4 21.0 15.2 72 3.1 NNE 6 15 3 8 1011.6 1011.2 0.4
19/09:00pm 20.5 20.5 15.3 72 3.1 NNE 9 15 5 8 1011.7 1011.3 0.4
19/08:30pm 20.4 19.6 15.0 71 3.2 NE 13 17 7 9 1011.7 1011.3 0.4
19/08:00pm 20.6 20.1 14.9 70 3.4 NE 11 17 6 9 1011.6 1011.2 0.4
19/07:30pm 20.8 20.8 15.1 70 3.4 NE 9 13 5 7 1011.5 1011.1 0.4
19/07:00pm 21.0 21.0 15.1 69 3.5 NE 9 15 5 8 1011.6 1011.2 0.4
19/06:30pm 21.1 19.9 15.0 68 3.6 ENE 15 22 8 12 1011.6 1011.2 0.4
19/06:00pm 21.3 20.5 15.2 68 3.6 ENE 13 17 7 9 1011.7 1011.3 0.4
19/05:30pm 21.4 20.2 15.0 67 3.8 NE 15 22 8 12 1012.0 1011.6 0.4
19/05:00pm 21.7 21.0 15.5 68 3.7 NE 13 20 7 11 1012.4 1012.0 0.4
19/04:30pm 21.0 19.6 15.5 71 3.3 ENE 17 24 9 13 1012.8 1012.4 0.4
19/04:00pm 20.4 20.3 16.0 76 2.6 ESE 11 20 6 11 1013.1 1012.7 0.4
19/03:30pm 20.3 21.2 16.7 80 2.2 SE 7 13 4 7 1013.6 1013.2 0.4
19/03:00pm 21.1 21.4 17.1 78 2.5 NE 11 20 6 11 1013.8 1013.5 0.4
19/02:30pm 19.7 20.3 17.7 88 1.2 NE 11 17 6 9 1014.1 1013.8 0.4
19/02:00pm 19.5 20.4 17.6 89 1.2 NE 9 15 5 8 1014.3 1014.0 0.4
19/01:30pm 18.5 19.6 17.9 96 0.4 E 9 17 5 9 1014.8 1014.5 0.4
19/01:00pm 18.7 20.6 18.5 99 0.1 E 6 9 3 5 1014.7 1014.4 0.2
19/12:30pm 18.2 19.3 17.2 94 0.6 SE 7 13 4 7 1015.4 1015.1 0.0
19/12:00pm 19.7 19.7 16.2 80 2.1 SE 11 15 6 8 1015.5 1015.2 0.0
19/11:30am 20.1 20.0 15.9 77 2.5 ESE 11 19 6 10 1015.5 1015.2 0.0
19/11:00am 20.6 20.6 15.2 71 3.2 E 9 19 5 10 1015.7 1015.4 0.0
19/10:30am 20.6 20.0 14.5 68 3.6 E 11 19 6 10 1015.7 1015.4 0.0
19/10:00am 20.6 20.9 14.9 70 3.4 SW 7 13 4 7 1015.6 1015.3 0.0
19/09:30am 19.9 19.7 14.7 72 3.0 SSW 9 11 5 6 1015.8 1015.5 0.0
19/09:00am 19.4 19.1 14.4 73 2.9 SW 9 13 5 7 1015.8 1015.5 0.2
19/08:30am 19.1 19.4 15.0 77 2.4 SW 7 11 4 6 1015.7 1015.4 0.2
19/08:00am 18.8 18.8 15.1 79 2.2 SW 9 13 5 7 1015.6 1015.3 0.2
19/07:30am 18.5 18.6 15.4 82 1.8 WSW 9 13 5 7 1015.6 1015.3 0.2
19/07:00am 18.0 18.5 15.6 86 1.4 WSW 7 13 4 7 1015.2 1014.9 0.2
19/06:30am 17.7 17.8 15.5 87 1.3 WSW 9 13 5 7 1015.1 1014.8 0.2
19/06:00am 17.5 17.3 15.8 90 1.0 WSW 11 13 6 7 1014.9 1014.6 0.2
19/05:30am 17.5 17.3 15.7 89 1.1 WSW 11 15 6 8 1014.9 1014.6 0.2
19/05:00am 17.6 17.1 15.9 90 1.0 WSW 13 19 7 10 1014.8 1014.5 0.2
19/04:30am 17.5 17.0 15.8 90 1.0 WSW 13 15 7 8 1014.7 1014.4 0.2
19/04:00am 17.5 17.5 16.2 92 0.8 WSW 11 17 6 9 1014.5 1014.2 0.2
19/03:30am 17.5 17.3 16.7 95 0.5 SW 13 15 7 8 1014.9 1014.6 0.2
19/03:00am 17.4 17.7 16.9 97 0.3 WSW 11 15 6 8 1015.1 1014.8 0.2
19/02:30am 17.6 17.9 17.0 96 0.4 SW 11 15 6 8 1015.5 1015.2 0.2
19/02:00am 17.6 18.6 16.8 95 0.5 SW 7 9 4 5 1015.8 1015.5 0.2
19/01:30am 17.3 18.4 17.0 98 0.2 SSW 7 9 4 5 1016.0 1015.7 0.2
19/01:00am 17.4 18.7 17.2 99 0.1 SE 6 9 3 5 1016.4 1016.1 0.2
19/12:30am 18.0 17.9 16.9 93 0.7 SSE 13 20 7 11 1016.5 1016.2 0.0
19/12:00am 18.2 19.0 17.4 95 0.5 S 9 15 5 8 1016.5 1016.2 0.0
 
Date/Time
EDT
Temp
°C
App
Temp
°C
Dew
Point
°C
Rel
Hum
%
Delta-T
°C
Wind Press
QNH
hPa
Press
MSL
hPa
Rain since
9am
mm
Dir  Spd
km/h
Gust
km/h
Spd
kts
Gust
kts
18/11:30pm 18.4 19.5 18.1 98 0.2 SSE 9 13 5 7 1016.6 1016.3 0.0
18/11:00pm 18.6 19.7 17.9 96 0.4 S 9 13 5 7 1016.6 1016.3 0.0
18/10:30pm 20.7 21.2 16.5 77 2.5 SE 9 17 5 9 1016.3 1016.0 0.0
18/10:00pm 20.9 21.4 16.5 76 2.7 SE 9 13 5 7 1016.0 1015.7 0.0
18/09:30pm 20.9 21.0 16.5 76 2.7 SE 11 19 6 10 1015.3 1015.0 0.0
18/09:00pm 21.3 20.7 16.7 75 2.8 SE 15 22 8 12 1014.9 1014.6 0.0
18/08:30pm 21.5 20.9 16.7 74 2.9 SSE 15 24 8 13 1014.4 1014.1 0.0
18/08:00pm 21.8 20.8 16.7 73 3.1 SE 17 28 9 15 1013.6 1013.2 0.0

Other Formats:

Comma delimited format used in spreadsheet applications
http://www.bom.gov.au/fwo/IDN60801/IDN60801.94752.axf

JavaScript Object Notation format (JSON) in row-major order
http://www.bom.gov.au/fwo/IDN60801/IDN60801.94752.json